sensor_id;sensor_type;location;lat;lon;timestamp;P1;durP1;ratioP1;P2;durP2;ratioP2
65092;SDS011;52025;50.288;2.794;2023-07-31T00:01:37;9.55;;;2.50;;
65092;SDS011;52025;50.288;2.794;2023-07-31T00:04:02;9.13;;;2.13;;
65092;SDS011;52025;50.288;2.794;2023-07-31T00:06:27;7.00;;;2.25;;
65092;SDS011;52025;50.288;2.794;2023-07-31T00:08:53;6.87;;;2.77;;
65092;SDS011;52025;50.288;2.794;2023-07-31T00:11:18;6.15;;;2.38;;
65092;SDS011;52025;50.288;2.794;2023-07-31T00:13:43;5.82;;;2.53;;
65092;SDS011;52025;50.288;2.794;2023-07-31T00:16:08;7.70;;;2.58;;
65092;SDS011;52025;50.288;2.794;2023-07-31T00:18:34;5.55;;;2.40;;
65092;SDS011;52025;50.288;2.794;2023-07-31T00:20:59;7.05;;;2.42;;
65092;SDS011;52025;50.288;2.794;2023-07-31T00:23:24;7.88;;;1.95;;
65092;SDS011;52025;50.288;2.794;2023-07-31T00:25:49;3.65;;;1.48;;
65092;SDS011;52025;50.288;2.794;2023-07-31T00:28:15;3.45;;;1.50;;
65092;SDS011;52025;50.288;2.794;2023-07-31T00:30:40;5.05;;;1.90;;
65092;SDS011;52025;50.288;2.794;2023-07-31T00:33:08;5.93;;;2.50;;
65092;SDS011;52025;50.288;2.794;2023-07-31T00:35:33;5.18;;;1.75;;
65092;SDS011;52025;50.288;2.794;2023-07-31T00:37:59;5.10;;;1.88;;
65092;SDS011;52025;50.288;2.794;2023-07-31T00:40:24;4.22;;;1.85;;
65092;SDS011;52025;50.288;2.794;2023-07-31T00:42:49;4.72;;;1.58;;
65092;SDS011;52025;50.288;2.794;2023-07-31T00:45:14;5.18;;;2.00;;
65092;SDS011;52025;50.288;2.794;2023-07-31T00:47:40;4.53;;;2.05;;
65092;SDS011;52025;50.288;2.794;2023-07-31T00:50:06;4.75;;;1.77;;
65092;SDS011;52025;50.288;2.794;2023-07-31T00:52:31;4.25;;;1.80;;
65092;SDS011;52025;50.288;2.794;2023-07-31T00:54:57;5.28;;;1.80;;
65092;SDS011;52025;50.288;2.794;2023-07-31T00:57:22;5.70;;;1.67;;
65092;SDS011;52025;50.288;2.794;2023-07-31T00:59:47;4.00;;;1.70;;
65092;SDS011;52025;50.288;2.794;2023-07-31T01:02:12;4.82;;;2.00;;
65092;SDS011;52025;50.288;2.794;2023-07-31T01:04:38;6.72;;;1.60;;
65092;SDS011;52025;50.288;2.794;2023-07-31T01:09:33;3.97;;;1.90;;
65092;SDS011;52025;50.288;2.794;2023-07-31T01:12:02;6.03;;;1.80;;
65092;SDS011;52025;50.288;2.794;2023-07-31T01:14:28;2.80;;;1.20;;
65092;SDS011;52025;50.288;2.794;2023-07-31T01:16:54;4.97;;;1.85;;
65092;SDS011;52025;50.288;2.794;2023-07-31T01:19:21;3.83;;;1.60;;
65092;SDS011;52025;50.288;2.794;2023-07-31T01:27:15;3.90;;;1.52;;
65092;SDS011;52025;50.288;2.794;2023-07-31T01:30:03;6.25;;;2.03;;
65092;SDS011;52025;50.288;2.794;2023-07-31T01:32:35;4.60;;;2.00;;
65092;SDS011;52025;50.288;2.794;2023-07-31T01:35:00;4.75;;;1.80;;
65092;SDS011;52025;50.288;2.794;2023-07-31T01:37:29;4.55;;;1.55;;
65092;SDS011;52025;50.288;2.794;2023-07-31T01:39:55;5.30;;;1.60;;
65092;SDS011;52025;50.288;2.794;2023-07-31T01:42:20;3.95;;;1.70;;
65092;SDS011;52025;50.288;2.794;2023-07-31T01:44:45;4.93;;;1.85;;
65092;SDS011;52025;50.288;2.794;2023-07-31T01:47:10;4.83;;;1.93;;
65092;SDS011;52025;50.288;2.794;2023-07-31T01:49:36;6.57;;;2.08;;
65092;SDS011;52025;50.288;2.794;2023-07-31T01:52:01;4.20;;;1.70;;
65092;SDS011;52025;50.288;2.794;2023-07-31T01:54:26;5.57;;;1.42;;
65092;SDS011;52025;50.288;2.794;2023-07-31T01:56:51;5.22;;;1.90;;
65092;SDS011;52025;50.288;2.794;2023-07-31T01:59:17;5.22;;;2.05;;
65092;SDS011;52025;50.288;2.794;2023-07-31T02:01:42;7.32;;;2.17;;
65092;SDS011;52025;50.288;2.794;2023-07-31T02:04:07;4.25;;;1.70;;
65092;SDS011;52025;50.288;2.794;2023-07-31T02:06:32;4.88;;;1.90;;
65092;SDS011;52025;50.288;2.794;2023-07-31T02:08:58;3.75;;;1.30;;
65092;SDS011;52025;50.288;2.794;2023-07-31T02:11:23;8.05;;;2.20;;
65092;SDS011;52025;50.288;2.794;2023-07-31T02:13:48;4.45;;;1.63;;
65092;SDS011;52025;50.288;2.794;2023-07-31T02:16:14;4.80;;;1.80;;
65092;SDS011;52025;50.288;2.794;2023-07-31T02:18:39;4.65;;;1.80;;
65092;SDS011;52025;50.288;2.794;2023-07-31T02:21:04;6.00;;;1.90;;
65092;SDS011;52025;50.288;2.794;2023-07-31T02:23:29;6.13;;;2.38;;
65092;SDS011;52025;50.288;2.794;2023-07-31T02:25:55;5.30;;;1.80;;
65092;SDS011;52025;50.288;2.794;2023-07-31T02:28:20;4.15;;;1.88;;
65092;SDS011;52025;50.288;2.794;2023-07-31T02:30:45;5.38;;;1.92;;
65092;SDS011;52025;50.288;2.794;2023-07-31T02:33:11;5.68;;;2.03;;
65092;SDS011;52025;50.288;2.794;2023-07-31T02:35:36;4.82;;;1.98;;
65092;SDS011;52025;50.288;2.794;2023-07-31T02:38:01;5.47;;;2.05;;
65092;SDS011;52025;50.288;2.794;2023-07-31T02:40:27;4.75;;;1.63;;
65092;SDS011;52025;50.288;2.794;2023-07-31T02:42:52;5.85;;;2.15;;
65092;SDS011;52025;50.288;2.794;2023-07-31T02:45:17;6.77;;;2.00;;
65092;SDS011;52025;50.288;2.794;2023-07-31T02:47:42;4.53;;;1.70;;
65092;SDS011;52025;50.288;2.794;2023-07-31T02:50:08;4.07;;;1.80;;
65092;SDS011;52025;50.288;2.794;2023-07-31T02:52:33;4.07;;;1.45;;
65092;SDS011;52025;50.288;2.794;2023-07-31T02:54:58;4.13;;;1.47;;
65092;SDS011;52025;50.288;2.794;2023-07-31T02:57:23;5.63;;;1.80;;
65092;SDS011;52025;50.288;2.794;2023-07-31T02:59:49;4.70;;;1.55;;
65092;SDS011;52025;50.288;2.794;2023-07-31T03:02:14;5.13;;;1.88;;
65092;SDS011;52025;50.288;2.794;2023-07-31T03:04:39;4.15;;;1.55;;
65092;SDS011;52025;50.288;2.794;2023-07-31T03:07:05;5.18;;;1.77;;
65092;SDS011;52025;50.288;2.794;2023-07-31T03:09:30;4.25;;;1.60;;
65092;SDS011;52025;50.288;2.794;2023-07-31T03:11:55;7.65;;;1.98;;
65092;SDS011;52025;50.288;2.794;2023-07-31T03:14:20;7.40;;;1.83;;
65092;SDS011;52025;50.288;2.794;2023-07-31T03:16:46;6.30;;;1.88;;
65092;SDS011;52025;50.288;2.794;2023-07-31T03:19:11;4.25;;;1.40;;
65092;SDS011;52025;50.288;2.794;2023-07-31T03:21:36;5.77;;;2.00;;
65092;SDS011;52025;50.288;2.794;2023-07-31T03:24:01;4.43;;;1.80;;
65092;SDS011;52025;50.288;2.794;2023-07-31T03:26:27;5.40;;;1.90;;
65092;SDS011;52025;50.288;2.794;2023-07-31T03:28:52;3.22;;;1.20;;
65092;SDS011;52025;50.288;2.794;2023-07-31T03:31:17;4.95;;;2.00;;
65092;SDS011;52025;50.288;2.794;2023-07-31T03:33:42;5.15;;;1.80;;
65092;SDS011;52025;50.288;2.794;2023-07-31T03:36:08;7.30;;;1.90;;
65092;SDS011;52025;50.288;2.794;2023-07-31T03:38:33;4.47;;;1.70;;
65092;SDS011;52025;50.288;2.794;2023-07-31T03:40:59;14.65;;;2.08;;
65092;SDS011;52025;50.288;2.794;2023-07-31T03:43:24;5.67;;;1.67;;
65092;SDS011;52025;50.288;2.794;2023-07-31T03:45:50;8.98;;;2.25;;
65092;SDS011;52025;50.288;2.794;2023-07-31T03:48:15;4.95;;;1.50;;
65092;SDS011;52025;50.288;2.794;2023-07-31T03:50:41;4.00;;;1.70;;
65092;SDS011;52025;50.288;2.794;2023-07-31T03:53:06;7.43;;;1.58;;
65092;SDS011;52025;50.288;2.794;2023-07-31T03:55:31;5.10;;;1.55;;
65092;SDS011;52025;50.288;2.794;2023-07-31T03:57:57;9.00;;;2.43;;
65092;SDS011;52025;50.288;2.794;2023-07-31T04:00:22;3.17;;;1.47;;
65092;SDS011;52025;50.288;2.794;2023-07-31T04:02:47;3.58;;;1.58;;
65092;SDS011;52025;50.288;2.794;2023-07-31T04:05:13;4.28;;;1.88;;
65092;SDS011;52025;50.288;2.794;2023-07-31T04:07:38;3.42;;;1.50;;
65092;SDS011;52025;50.288;2.794;2023-07-31T04:10:03;4.10;;;1.70;;
65092;SDS011;52025;50.288;2.794;2023-07-31T04:12:29;4.70;;;1.60;;
65092;SDS011;52025;50.288;2.794;2023-07-31T04:14:54;3.28;;;1.48;;
65092;SDS011;52025;50.288;2.794;2023-07-31T04:17:19;4.75;;;1.73;;
65092;SDS011;52025;50.288;2.794;2023-07-31T04:19:44;5.15;;;1.70;;
65092;SDS011;52025;50.288;2.794;2023-07-31T04:22:10;6.07;;;1.98;;
65092;SDS011;52025;50.288;2.794;2023-07-31T04:24:35;3.83;;;1.55;;
65092;SDS011;52025;50.288;2.794;2023-07-31T04:27:00;4.70;;;1.77;;
65092;SDS011;52025;50.288;2.794;2023-07-31T04:29:25;8.10;;;2.50;;
65092;SDS011;52025;50.288;2.794;2023-07-31T04:31:51;2.58;;;1.33;;
65092;SDS011;52025;50.288;2.794;2023-07-31T04:34:16;6.37;;;1.97;;
65092;SDS011;52025;50.288;2.794;2023-07-31T04:36:41;2.90;;;1.25;;
65092;SDS011;52025;50.288;2.794;2023-07-31T04:39:06;4.70;;;1.60;;
65092;SDS011;52025;50.288;2.794;2023-07-31T04:41:32;4.45;;;1.90;;
65092;SDS011;52025;50.288;2.794;2023-07-31T04:43:57;5.05;;;1.20;;
65092;SDS011;52025;50.288;2.794;2023-07-31T04:46:22;4.75;;;1.70;;
65092;SDS011;52025;50.288;2.794;2023-07-31T04:48:47;5.43;;;1.90;;
65092;SDS011;52025;50.288;2.794;2023-07-31T04:51:13;5.63;;;1.83;;
65092;SDS011;52025;50.288;2.794;2023-07-31T04:53:38;5.60;;;1.67;;
65092;SDS011;52025;50.288;2.794;2023-07-31T04:56:03;5.47;;;1.80;;
65092;SDS011;52025;50.288;2.794;2023-07-31T04:58:29;4.30;;;1.63;;
65092;SDS011;52025;50.288;2.794;2023-07-31T05:00:54;4.23;;;1.40;;
65092;SDS011;52025;50.288;2.794;2023-07-31T05:03:19;3.95;;;1.58;;
65092;SDS011;52025;50.288;2.794;2023-07-31T05:05:44;5.77;;;1.87;;
65092;SDS011;52025;50.288;2.794;2023-07-31T05:08:10;3.25;;;1.38;;
65092;SDS011;52025;50.288;2.794;2023-07-31T05:10:35;3.58;;;1.48;;
65092;SDS011;52025;50.288;2.794;2023-07-31T05:13:00;5.33;;;1.47;;
65092;SDS011;52025;50.288;2.794;2023-07-31T05:15:25;4.13;;;1.60;;
65092;SDS011;52025;50.288;2.794;2023-07-31T05:17:51;6.88;;;2.10;;
65092;SDS011;52025;50.288;2.794;2023-07-31T05:20:16;4.77;;;1.60;;
65092;SDS011;52025;50.288;2.794;2023-07-31T05:22:41;5.95;;;1.70;;
65092;SDS011;52025;50.288;2.794;2023-07-31T05:25:07;5.60;;;1.85;;
65092;SDS011;52025;50.288;2.794;2023-07-31T05:27:32;4.57;;;1.42;;
65092;SDS011;52025;50.288;2.794;2023-07-31T05:29:57;4.85;;;1.92;;
65092;SDS011;52025;50.288;2.794;2023-07-31T05:32:23;2.42;;;1.15;;
65092;SDS011;52025;50.288;2.794;2023-07-31T05:34:50;5.88;;;1.75;;
65092;SDS011;52025;50.288;2.794;2023-07-31T05:37:16;4.75;;;1.70;;
65092;SDS011;52025;50.288;2.794;2023-07-31T05:39:41;5.30;;;1.67;;
65092;SDS011;52025;50.288;2.794;2023-07-31T05:42:06;6.18;;;1.80;;
65092;SDS011;52025;50.288;2.794;2023-07-31T05:44:31;5.20;;;1.90;;
65092;SDS011;52025;50.288;2.794;2023-07-31T05:46:57;4.90;;;1.80;;
65092;SDS011;52025;50.288;2.794;2023-07-31T05:49:22;3.63;;;1.30;;
65092;SDS011;52025;50.288;2.794;2023-07-31T05:51:47;7.25;;;1.70;;
65092;SDS011;52025;50.288;2.794;2023-07-31T05:54:12;6.95;;;1.77;;
65092;SDS011;52025;50.288;2.794;2023-07-31T05:56:38;6.18;;;1.60;;
65092;SDS011;52025;50.288;2.794;2023-07-31T05:59:03;5.05;;;1.70;;
65092;SDS011;52025;50.288;2.794;2023-07-31T06:01:29;6.45;;;1.67;;
65092;SDS011;52025;50.288;2.794;2023-07-31T06:03:55;3.25;;;1.48;;
65092;SDS011;52025;50.288;2.794;2023-07-31T06:06:20;5.90;;;1.40;;
65092;SDS011;52025;50.288;2.794;2023-07-31T06:08:45;4.78;;;1.50;;
65092;SDS011;52025;50.288;2.794;2023-07-31T06:11:11;4.38;;;1.55;;
65092;SDS011;52025;50.288;2.794;2023-07-31T06:13:36;7.43;;;2.00;;
65092;SDS011;52025;50.288;2.794;2023-07-31T06:16:01;3.35;;;1.48;;
65092;SDS011;52025;50.288;2.794;2023-07-31T06:18:30;3.47;;;1.27;;
65092;SDS011;52025;50.288;2.794;2023-07-31T06:20:55;4.28;;;1.30;;
65092;SDS011;52025;50.288;2.794;2023-07-31T06:23:20;7.18;;;1.20;;
65092;SDS011;52025;50.288;2.794;2023-07-31T06:25:46;4.28;;;1.27;;
65092;SDS011;52025;50.288;2.794;2023-07-31T06:28:11;6.70;;;2.10;;
65092;SDS011;52025;50.288;2.794;2023-07-31T06:30:37;4.20;;;1.67;;
65092;SDS011;52025;50.288;2.794;2023-07-31T06:33:02;6.47;;;1.95;;
65092;SDS011;52025;50.288;2.794;2023-07-31T06:35:27;4.95;;;1.55;;
65092;SDS011;52025;50.288;2.794;2023-07-31T06:37:53;4.03;;;1.77;;
65092;SDS011;52025;50.288;2.794;2023-07-31T06:40:18;2.70;;;1.23;;
65092;SDS011;52025;50.288;2.794;2023-07-31T06:42:44;3.67;;;1.50;;
65092;SDS011;52025;50.288;2.794;2023-07-31T06:45:09;5.68;;;1.52;;
65092;SDS011;52025;50.288;2.794;2023-07-31T06:47:35;6.80;;;1.70;;
65092;SDS011;52025;50.288;2.794;2023-07-31T06:50:00;6.22;;;1.70;;
65092;SDS011;52025;50.288;2.794;2023-07-31T06:52:25;6.75;;;1.63;;
65092;SDS011;52025;50.288;2.794;2023-07-31T06:55:03;2.90;;;1.33;;
65092;SDS011;52025;50.288;2.794;2023-07-31T06:57:31;6.32;;;1.85;;
65092;SDS011;52025;50.288;2.794;2023-07-31T06:59:58;3.47;;;1.42;;
65092;SDS011;52025;50.288;2.794;2023-07-31T07:02:23;3.90;;;1.40;;
65092;SDS011;52025;50.288;2.794;2023-07-31T07:04:49;4.05;;;1.65;;
65092;SDS011;52025;50.288;2.794;2023-07-31T07:07:15;4.55;;;1.67;;
65092;SDS011;52025;50.288;2.794;2023-07-31T07:09:40;4.90;;;1.67;;
65092;SDS011;52025;50.288;2.794;2023-07-31T07:12:05;4.65;;;1.58;;
65092;SDS011;52025;50.288;2.794;2023-07-31T07:14:31;5.15;;;1.05;;
65092;SDS011;52025;50.288;2.794;2023-07-31T07:16:57;5.20;;;1.92;;
65092;SDS011;52025;50.288;2.794;2023-07-31T07:19:22;4.00;;;1.65;;
65092;SDS011;52025;50.288;2.794;2023-07-31T07:21:47;3.15;;;1.52;;
65092;SDS011;52025;50.288;2.794;2023-07-31T07:24:13;5.22;;;1.50;;
65092;SDS011;52025;50.288;2.794;2023-07-31T07:26:38;3.42;;;1.48;;
65092;SDS011;52025;50.288;2.794;2023-07-31T07:29:03;5.40;;;1.80;;
65092;SDS011;52025;50.288;2.794;2023-07-31T07:31:32;5.57;;;2.00;;
65092;SDS011;52025;50.288;2.794;2023-07-31T07:33:57;5.53;;;2.13;;
65092;SDS011;52025;50.288;2.794;2023-07-31T07:36:22;4.47;;;1.88;;
65092;SDS011;52025;50.288;2.794;2023-07-31T07:38:48;7.03;;;2.40;;
65092;SDS011;52025;50.288;2.794;2023-07-31T07:41:13;5.20;;;2.08;;
65092;SDS011;52025;50.288;2.794;2023-07-31T07:43:38;4.63;;;1.70;;
65092;SDS011;52025;50.288;2.794;2023-07-31T07:46:06;7.90;;;2.15;;
65092;SDS011;52025;50.288;2.794;2023-07-31T07:48:31;7.65;;;2.58;;
65092;SDS011;52025;50.288;2.794;2023-07-31T07:50:59;4.35;;;1.77;;
65092;SDS011;52025;50.288;2.794;2023-07-31T07:53:24;7.72;;;2.13;;
65092;SDS011;52025;50.288;2.794;2023-07-31T07:55:49;5.03;;;1.90;;
65092;SDS011;52025;50.288;2.794;2023-07-31T07:58:17;4.53;;;2.30;;
65092;SDS011;52025;50.288;2.794;2023-07-31T08:00:48;6.47;;;1.85;;
65092;SDS011;52025;50.288;2.794;2023-07-31T08:03:14;6.45;;;2.00;;
65092;SDS011;52025;50.288;2.794;2023-07-31T08:05:39;7.00;;;2.78;;
65092;SDS011;52025;50.288;2.794;2023-07-31T08:08:07;7.40;;;2.53;;
65092;SDS011;52025;50.288;2.794;2023-07-31T08:10:32;1.60;;;0.90;;
65092;SDS011;52025;50.288;2.794;2023-07-31T08:13:06;5.28;;;1.83;;
65092;SDS011;52025;50.288;2.794;2023-07-31T08:37:11;4.32;;;2.05;;
65092;SDS011;52025;50.288;2.794;2023-07-31T09:07:39;4.45;;;1.90;;
65092;SDS011;52025;50.288;2.794;2023-07-31T09:15:45;5.32;;;2.05;;
65092;SDS011;52025;50.288;2.794;2023-07-31T09:18:11;6.88;;;2.85;;
65092;SDS011;52025;50.288;2.794;2023-07-31T09:20:39;5.35;;;2.00;;
65092;SDS011;52025;50.288;2.794;2023-07-31T09:23:06;8.00;;;4.00;;
65092;SDS011;52025;50.288;2.794;2023-07-31T09:25:33;5.30;;;2.70;;
65092;SDS011;52025;50.288;2.794;2023-07-31T09:28:21;6.70;;;2.47;;
65092;SDS011;52025;50.288;2.794;2023-07-31T09:30:57;4.55;;;1.95;;
65092;SDS011;52025;50.288;2.794;2023-07-31T09:33:25;4.28;;;1.40;;
65092;SDS011;52025;50.288;2.794;2023-07-31T09:48:56;1.95;;;1.05;;
65092;SDS011;52025;50.288;2.794;2023-07-31T10:07:09;4.38;;;1.77;;
65092;SDS011;52025;50.288;2.794;2023-07-31T10:10:13;4.82;;;1.83;;
65092;SDS011;52025;50.288;2.794;2023-07-31T10:16:08;7.25;;;2.03;;
65092;SDS011;52025;50.288;2.794;2023-07-31T10:21:09;7.95;;;3.10;;
65092;SDS011;52025;50.288;2.794;2023-07-31T10:23:34;6.10;;;2.22;;
65092;SDS011;52025;50.288;2.794;2023-07-31T10:26:01;6.53;;;2.22;;
65092;SDS011;52025;50.288;2.794;2023-07-31T10:28:29;5.45;;;2.40;;
65092;SDS011;52025;50.288;2.794;2023-07-31T10:30:54;4.53;;;1.83;;
65092;SDS011;52025;50.288;2.794;2023-07-31T10:33:20;8.88;;;2.42;;
65092;SDS011;52025;50.288;2.794;2023-07-31T10:35:50;4.43;;;1.88;;
65092;SDS011;52025;50.288;2.794;2023-07-31T10:38:18;6.78;;;2.13;;
65092;SDS011;52025;50.288;2.794;2023-07-31T10:40:44;3.33;;;1.60;;
65092;SDS011;52025;50.288;2.794;2023-07-31T10:43:23;7.10;;;2.55;;
65092;SDS011;52025;50.288;2.794;2023-07-31T10:45:49;3.63;;;1.30;;
65092;SDS011;52025;50.288;2.794;2023-07-31T10:48:15;4.00;;;1.70;;
65092;SDS011;52025;50.288;2.794;2023-07-31T10:50:47;6.32;;;2.10;;
65092;SDS011;52025;50.288;2.794;2023-07-31T10:53:28;3.80;;;1.63;;
65092;SDS011;52025;50.288;2.794;2023-07-31T10:55:57;5.70;;;1.35;;
65092;SDS011;52025;50.288;2.794;2023-07-31T10:58:22;3.28;;;1.40;;
65092;SDS011;52025;50.288;2.794;2023-07-31T11:00:48;6.07;;;2.03;;
65092;SDS011;52025;50.288;2.794;2023-07-31T11:03:14;4.25;;;1.55;;
65092;SDS011;52025;50.288;2.794;2023-07-31T11:05:41;5.63;;;2.03;;
65092;SDS011;52025;50.288;2.794;2023-07-31T11:13:42;6.85;;;2.03;;
65092;SDS011;52025;50.288;2.794;2023-07-31T11:16:08;4.27;;;1.83;;
65092;SDS011;52025;50.288;2.794;2023-07-31T11:18:34;3.17;;;1.75;;
65092;SDS011;52025;50.288;2.794;2023-07-31T11:21:05;4.50;;;1.98;;
65092;SDS011;52025;50.288;2.794;2023-07-31T11:23:31;3.95;;;1.70;;
65092;SDS011;52025;50.288;2.794;2023-07-31T11:26:00;3.88;;;1.63;;
65092;SDS011;52025;50.288;2.794;2023-07-31T11:28:25;4.18;;;1.50;;
65092;SDS011;52025;50.288;2.794;2023-07-31T11:30:51;6.13;;;1.80;;
65092;SDS011;52025;50.288;2.794;2023-07-31T11:33:16;3.55;;;1.45;;
65092;SDS011;52025;50.288;2.794;2023-07-31T11:35:43;3.65;;;1.50;;
65092;SDS011;52025;50.288;2.794;2023-07-31T11:38:09;2.63;;;1.15;;
65092;SDS011;52025;50.288;2.794;2023-07-31T11:40:42;3.38;;;1.10;;
65092;SDS011;52025;50.288;2.794;2023-07-31T11:43:07;7.00;;;1.80;;
65092;SDS011;52025;50.288;2.794;2023-07-31T11:45:33;3.45;;;1.30;;
65092;SDS011;52025;50.288;2.794;2023-07-31T11:47:58;3.42;;;1.40;;
65092;SDS011;52025;50.288;2.794;2023-07-31T11:50:23;2.58;;;1.13;;
65092;SDS011;52025;50.288;2.794;2023-07-31T11:52:52;3.88;;;1.45;;
65092;SDS011;52025;50.288;2.794;2023-07-31T11:55:21;3.17;;;1.13;;
65092;SDS011;52025;50.288;2.794;2023-07-31T11:57:47;5.72;;;1.25;;
65092;SDS011;52025;50.288;2.794;2023-07-31T12:00:13;3.95;;;1.38;;
65092;SDS011;52025;50.288;2.794;2023-07-31T12:02:39;3.97;;;1.63;;
65092;SDS011;52025;50.288;2.794;2023-07-31T12:05:05;6.10;;;1.60;;
65092;SDS011;52025;50.288;2.794;2023-07-31T12:07:53;6.80;;;2.22;;
65092;SDS011;52025;50.288;2.794;2023-07-31T12:10:23;4.03;;;1.25;;
65092;SDS011;52025;50.288;2.794;2023-07-31T12:13:10;5.55;;;1.70;;
65092;SDS011;52025;50.288;2.794;2023-07-31T12:18:05;2.25;;;1.00;;
65092;SDS011;52025;50.288;2.794;2023-07-31T12:20:32;4.20;;;1.45;;
65092;SDS011;52025;50.288;2.794;2023-07-31T12:22:58;3.40;;;1.20;;
65092;SDS011;52025;50.288;2.794;2023-07-31T12:25:33;3.10;;;1.13;;
65092;SDS011;52025;50.288;2.794;2023-07-31T12:28:05;2.13;;;0.80;;
65092;SDS011;52025;50.288;2.794;2023-07-31T12:30:32;3.00;;;1.17;;
65092;SDS011;52025;50.288;2.794;2023-07-31T12:33:13;4.18;;;1.60;;
65092;SDS011;52025;50.288;2.794;2023-07-31T12:35:48;0.95;;;0.40;;
65092;SDS011;52025;50.288;2.794;2023-07-31T12:38:13;2.50;;;0.98;;
65092;SDS011;52025;50.288;2.794;2023-07-31T12:40:39;1.90;;;0.77;;
65092;SDS011;52025;50.288;2.794;2023-07-31T12:43:05;2.78;;;0.95;;
65092;SDS011;52025;50.288;2.794;2023-07-31T12:45:31;3.03;;;1.20;;
65092;SDS011;52025;50.288;2.794;2023-07-31T12:47:56;2.55;;;1.00;;
65092;SDS011;52025;50.288;2.794;2023-07-31T12:50:22;1.60;;;0.85;;
65092;SDS011;52025;50.288;2.794;2023-07-31T12:52:48;2.03;;;0.93;;
65092;SDS011;52025;50.288;2.794;2023-07-31T12:55:13;2.28;;;0.93;;
65092;SDS011;52025;50.288;2.794;2023-07-31T12:57:39;2.15;;;0.88;;
65092;SDS011;52025;50.288;2.794;2023-07-31T13:00:05;3.90;;;1.00;;
65092;SDS011;52025;50.288;2.794;2023-07-31T13:02:30;1.50;;;0.77;;
65092;SDS011;52025;50.288;2.794;2023-07-31T13:04:55;1.77;;;0.70;;
65092;SDS011;52025;50.288;2.794;2023-07-31T13:07:21;2.53;;;1.17;;
65092;SDS011;52025;50.288;2.794;2023-07-31T13:09:47;3.58;;;1.58;;
65092;SDS011;52025;50.288;2.794;2023-07-31T13:12:12;2.58;;;1.10;;
65092;SDS011;52025;50.288;2.794;2023-07-31T13:14:37;1.20;;;0.73;;
65092;SDS011;52025;50.288;2.794;2023-07-31T13:17:02;2.72;;;0.80;;
65092;SDS011;52025;50.288;2.794;2023-07-31T13:19:28;2.25;;;0.93;;
65092;SDS011;52025;50.288;2.794;2023-07-31T13:21:53;2.08;;;0.90;;
65092;SDS011;52025;50.288;2.794;2023-07-31T13:24:18;2.28;;;0.80;;
65092;SDS011;52025;50.288;2.794;2023-07-31T13:26:44;1.30;;;0.70;;
65092;SDS011;52025;50.288;2.794;2023-07-31T13:29:09;2.13;;;0.75;;
65092;SDS011;52025;50.288;2.794;2023-07-31T13:31:35;1.67;;;0.60;;
65092;SDS011;52025;50.288;2.794;2023-07-31T13:34:01;2.20;;;0.98;;
65092;SDS011;52025;50.288;2.794;2023-07-31T13:36:26;1.25;;;0.70;;
65092;SDS011;52025;50.288;2.794;2023-07-31T13:38:51;1.10;;;0.57;;
65092;SDS011;52025;50.288;2.794;2023-07-31T13:41:16;1.52;;;0.85;;
65092;SDS011;52025;50.288;2.794;2023-07-31T13:43:42;1.10;;;0.80;;
65092;SDS011;52025;50.288;2.794;2023-07-31T13:46:07;1.02;;;0.63;;
65092;SDS011;52025;50.288;2.794;2023-07-31T13:48:34;1.70;;;0.77;;
65092;SDS011;52025;50.288;2.794;2023-07-31T13:51:00;1.52;;;0.57;;
65092;SDS011;52025;50.288;2.794;2023-07-31T13:53:25;1.13;;;0.60;;
65092;SDS011;52025;50.288;2.794;2023-07-31T13:55:50;1.27;;;0.70;;
65092;SDS011;52025;50.288;2.794;2023-07-31T13:58:16;1.27;;;0.55;;
65092;SDS011;52025;50.288;2.794;2023-07-31T14:00:41;0.35;;;0.32;;
65092;SDS011;52025;50.288;2.794;2023-07-31T14:03:07;1.15;;;0.47;;
65092;SDS011;52025;50.288;2.794;2023-07-31T14:05:32;1.52;;;0.52;;
65092;SDS011;52025;50.288;2.794;2023-07-31T14:07:57;0.35;;;0.32;;
65092;SDS011;52025;50.288;2.794;2023-07-31T14:10:22;2.33;;;0.38;;
65092;SDS011;52025;50.288;2.794;2023-07-31T14:12:48;1.13;;;0.45;;
65092;SDS011;52025;50.288;2.794;2023-07-31T14:15:13;1.40;;;0.80;;
65092;SDS011;52025;50.288;2.794;2023-07-31T14:17:39;0.57;;;0.40;;
65092;SDS011;52025;50.288;2.794;2023-07-31T14:20:04;1.10;;;0.60;;
65092;SDS011;52025;50.288;2.794;2023-07-31T14:22:30;1.45;;;0.70;;
65092;SDS011;52025;50.288;2.794;2023-07-31T14:24:55;1.90;;;0.80;;
65092;SDS011;52025;50.288;2.794;2023-07-31T14:27:20;0.90;;;0.57;;
65092;SDS011;52025;50.288;2.794;2023-07-31T14:29:46;2.05;;;0.75;;
65092;SDS011;52025;50.288;2.794;2023-07-31T14:32:11;1.27;;;0.60;;
65092;SDS011;52025;50.288;2.794;2023-07-31T14:34:36;2.95;;;0.90;;
65092;SDS011;52025;50.288;2.794;2023-07-31T14:37:01;1.55;;;0.70;;
65092;SDS011;52025;50.288;2.794;2023-07-31T14:39:27;1.13;;;0.65;;
65092;SDS011;52025;50.288;2.794;2023-07-31T14:41:52;1.52;;;0.57;;
65092;SDS011;52025;50.288;2.794;2023-07-31T14:44:17;1.00;;;0.63;;
65092;SDS011;52025;50.288;2.794;2023-07-31T14:46:43;0.63;;;0.38;;
65092;SDS011;52025;50.288;2.794;2023-07-31T14:49:08;1.80;;;0.68;;
65092;SDS011;52025;50.288;2.794;2023-07-31T14:51:33;1.60;;;0.80;;
65092;SDS011;52025;50.288;2.794;2023-07-31T14:54:01;1.83;;;0.80;;
65092;SDS011;52025;50.288;2.794;2023-07-31T14:56:32;4.70;;;0.98;;
65092;SDS011;52025;50.288;2.794;2023-07-31T14:58:57;1.73;;;0.93;;
65092;SDS011;52025;50.288;2.794;2023-07-31T15:01:23;2.80;;;1.20;;
65092;SDS011;52025;50.288;2.794;2023-07-31T15:03:49;2.30;;;1.05;;
65092;SDS011;52025;50.288;2.794;2023-07-31T15:06:14;2.67;;;1.10;;
65092;SDS011;52025;50.288;2.794;2023-07-31T15:08:39;1.75;;;0.88;;
65092;SDS011;52025;50.288;2.794;2023-07-31T15:11:06;2.42;;;1.02;;
65092;SDS011;52025;50.288;2.794;2023-07-31T15:13:32;3.13;;;1.05;;
65092;SDS011;52025;50.288;2.794;2023-07-31T15:15:57;3.10;;;1.20;;
65092;SDS011;52025;50.288;2.794;2023-07-31T15:18:23;3.33;;;1.13;;
65092;SDS011;52025;50.288;2.794;2023-07-31T15:20:48;3.47;;;1.65;;
65092;SDS011;52025;50.288;2.794;2023-07-31T15:23:16;3.70;;;1.25;;
65092;SDS011;52025;50.288;2.794;2023-07-31T15:25:41;4.57;;;1.48;;
65092;SDS011;52025;50.288;2.794;2023-07-31T15:28:07;3.28;;;1.27;;
65092;SDS011;52025;50.288;2.794;2023-07-31T15:30:34;3.20;;;1.40;;
65092;SDS011;52025;50.288;2.794;2023-07-31T15:33:00;1.90;;;0.90;;
65092;SDS011;52025;50.288;2.794;2023-07-31T15:35:26;3.33;;;1.25;;
65092;SDS011;52025;50.288;2.794;2023-07-31T15:37:51;3.67;;;1.60;;
65092;SDS011;52025;50.288;2.794;2023-07-31T15:40:16;2.25;;;1.15;;
65092;SDS011;52025;50.288;2.794;2023-07-31T15:42:42;4.13;;;1.40;;
65092;SDS011;52025;50.288;2.794;2023-07-31T15:45:28;3.63;;;1.20;;
65092;SDS011;52025;50.288;2.794;2023-07-31T15:57:06;2.33;;;1.02;;
65092;SDS011;52025;50.288;2.794;2023-07-31T15:59:31;3.88;;;1.20;;
65092;SDS011;52025;50.288;2.794;2023-07-31T16:02:08;0.98;;;0.70;;
65092;SDS011;52025;50.288;2.794;2023-07-31T16:04:37;0.77;;;0.65;;
65092;SDS011;52025;50.288;2.794;2023-07-31T16:07:10;1.80;;;0.90;;
65092;SDS011;52025;50.288;2.794;2023-07-31T16:09:57;3.30;;;1.35;;
65092;SDS011;52025;50.288;2.794;2023-07-31T16:12:35;1.88;;;0.77;;
65092;SDS011;52025;50.288;2.794;2023-07-31T16:15:09;1.60;;;0.80;;
65092;SDS011;52025;50.288;2.794;2023-07-31T16:17:36;1.85;;;0.90;;
65092;SDS011;52025;50.288;2.794;2023-07-31T16:20:04;2.67;;;1.20;;
65092;SDS011;52025;50.288;2.794;2023-07-31T16:22:30;2.38;;;0.80;;
65092;SDS011;52025;50.288;2.794;2023-07-31T16:24:55;1.60;;;0.80;;
65092;SDS011;52025;50.288;2.794;2023-07-31T16:27:20;1.73;;;0.80;;
65092;SDS011;52025;50.288;2.794;2023-07-31T16:29:48;1.88;;;0.68;;
65092;SDS011;52025;50.288;2.794;2023-07-31T16:32:13;2.10;;;0.77;;
65092;SDS011;52025;50.288;2.794;2023-07-31T16:34:38;1.50;;;0.70;;
65092;SDS011;52025;50.288;2.794;2023-07-31T16:37:04;2.65;;;0.82;;
65092;SDS011;52025;50.288;2.794;2023-07-31T16:39:29;2.75;;;0.70;;